EDT,Max TemperatureF,Mean TemperatureF,Min TemperatureF,Max Dew PointF,MeanDew PointF,Min DewpointF,Max Humidity, Mean Humidity, Min Humidity, Max Sea Level PressureIn, Mean Sea Level PressureIn, Min Sea Level PressureIn, Max VisibilityMiles, Mean VisibilityMiles, Min VisibilityMiles, Max Wind SpeedMPH, Mean Wind SpeedMPH, Max Gust SpeedMPH,PrecipitationIn, CloudCover, Events, WindDirDegrees
2013-10-1,72,62,52,61,57,51,100,84,68,30.05,30.00,29.96,10,4,0,21,8,25,0.00,4,Fog,199
2013-10-2,80,69,58,60,54,47,100,68,35,30.09,30.04,29.97,10,9,2,12,4,14,0.00,2,,258
2013-10-3,77,68,58,67,61,51,93,81,69,30.07,30.01,29.95,10,9,7,17,6,20,T,7,,167
2013-10-4,80,73,65,67,65,63,93,76,58,30.03,30.00,29.96,10,10,7,14,7,17,T,6,Rain,196
2013-10-5,74,70,66,68,65,63,93,83,73,30.06,29.99,29.88,10,9,2,14,5,16,0.49,8,Rain-Thunderstorm,114
2013-10-6,73,65,57,68,64,55,97,88,79,29.88,29.76,29.66,10,8,2,18,9,23,0.46,8,Rain,185
2013-10-7,60,53,46,54,46,41,93,75,57,30.14,29.86,29.71,10,10,10,26,12,32,T,5,Rain,226
2013-10-8,65,54,43,47,42,38,96,67,37,30.30,30.26,30.15,10,10,10,12,3,17,0.00,1,,150
2013-10-9,69,57,45,52,45,41,93,66,39,30.33,30.28,30.24,10,10,7,13,4,17,0.00,1,,97
2013-10-10,71,59,46,51,46,42,93,65,37,30.25,30.21,30.14,10,8,2,9,2,13,0.00,1,,68
2013-10-11,74,60,46,55,47,42,93,64,35,30.17,30.12,30.09,10,10,2,8,3,12,0.00,1,,36
2013-10-12,75,63,51,61,55,47,100,69,38,30.12,30.10,30.06,10,6,0,12,3,16,0.00,5,Fog,125
2013-10-13,69,60,50,59,46,37,97,65,32,30.35,30.25,30.10,10,9,3,14,6,18,0.00,2,,307
2013-10-14,64,55,46,45,43,41,93,71,48,30.42,30.35,30.29,10,10,10,13,5,35,0.00,1,,25
2013-10-15,64,54,44,61,53,42,93,87,80,30.27,30.04,29.86,10,9,5,18,7,28,0.05,7,Rain,128
2013-10-16,63,58,52,61,52,43,100,76,52,29.93,29.86,29.83,10,8,5,22,12,29,0.01,7,Rain,215
2013-10-17,52,49,46,49,46,44,93,85,77,29.91,29.85,29.77,10,9,4,20,9,24,0.09,7,Rain,206
2013-10-18,64,52,40,45,42,38,100,71,42,29.94,29.90,29.86,10,10,6,22,10,26,0.00,4,,217
2013-10-19,49,43,36,43,40,36,100,88,76,29.91,29.83,29.77,10,7,3,21,8,25,0.21,6,Rain,228
2013-10-20,59,49,38,43,39,36,92,68,44,29.94,29.89,29.86,10,10,10,23,10,29,T,5,,196
2013-10-21,55,48,40,48,43,34,89,74,59,29.89,29.86,29.82,10,10,3,24,14,31,0.09,7,Rain,213
2013-10-22,51,41,31,35,30,28,82,64,46,29.95,29.91,29.87,10,10,10,21,11,26,0.00,6,,233
2013-10-23,49,41,32,34,30,24,96,71,45,29.95,29.89,29.83,10,10,9,17,9,24,0.01,6,Rain,270
2013-10-24,48,39,29,33,30,24,96,71,45,30.19,30.05,29.94,10,10,10,18,9,26,0.00,4,,248
2013-10-25,49,40,31,34,30,27,92,71,49,30.35,30.27,30.16,10,10,10,23,10,28,0.00,4,,246
2013-10-26,50,44,37,39,31,26,93,71,49,30.12,29.92,29.81,10,10,4,30,18,38,0.07,6,Rain,223
2013-10-27,53,43,32,34,32,29,96,71,46,30.10,30.04,30.01,10,10,10,16,7,22,0.00,4,,217
2013-10-28,51,42,32,39,33,28,82,72,61,30.40,30.26,30.09,10,10,10,14,7,18,0.00,5,,13
2013-10-29,50,43,36,37,33,30,85,68,50,30.46,30.38,30.27,10,10,10,9,5,12,0.00,7,,29
2013-10-30,62,48,34,52,41,33,92,69,46,30.25,30.14,29.98,10,9,4,12,4,15,0.41,4,Rain,106
2013-10-31,62,58,54,61,58,54,100,95,90,29.96,29.62,29.19,10,4,1,30,17,38,1.59,8,Rain-Thunderstorm,169